CMA CGM Musca — 2CAC8 — position and weather

sailwx.info

Track history (hours):
 
Tides and Currents Weather Stations Pressure Air Temp Water Temp Dewpoint Dewpoint Depression Visibility Wind Speed Wind Dir Waves Ship Positions

CMA CGM Musca

Last reported at 2014-Aug-22 17:20 UTC. Time now 2014-Aug-22 17:41 UTC.
Position N 36°11' W 002°55'.

Length 347 m; draft 13.7 m.

Type: Ship (hazmat cat A). MMSI: 235070914.

Date/timePositionNaut miles runAvg speedWind from/ knotsBaromVisibWave heightAir tempDewpointWater temp
2014-Aug-22 17:20N 36°11' W 002°55'1620.1
2014-Aug-22 16:33N 36°13' W 002°36'2220.4
2014-Aug-22 15:30N 36°17' W 002°10'1919.7
2014-Aug-22 14:33N 36°21' W 001°47'2020.4
2014-Aug-22 13:33N 36°25' W 001°23'2120.6
2014-Aug-22 12:33N 36°29' W 000°57'2020.3
2014-Aug-22 11:33N 36°33' W 000°33'2019.6
2014-Aug-22 10:33N 36°38' W 000°09'1919.5
2014-Aug-22 09:33N 36°42' E 000°14'2020.1
2014-Aug-22 08:33N 36°46' E 000°39'2120.5
2014-Aug-22 07:33N 36°49' E 001°05'2020.4
2014-Aug-22 06:33N 36°52' E 001°30'2020.2
2014-Aug-22 05:33N 36°55' E 001°55'2120.9
2014-Aug-22 04:33N 36°59' E 002°20'2121.0
2014-Aug-22 03:33N 37°05' E 002°46'2121.2
2014-Aug-22 02:33N 37°09' E 003°12'2020.1
2014-Aug-22 01:33N 37°13' E 003°36'2720.9
2014-Aug-22 00:16N 37°18' E 004°10'1420.3
2014-Aug-21 23:33N 37°21' E 004°27'2522.0
2014-Aug-21 22:25N 37°24' E 004°59'16921.0
2014-Aug-21 14:21N 37°41' E 008°31'1620.6
2014-Aug-21 13:33N 37°42' E 008°52'2019.9
2014-Aug-21 12:33N 37°43' E 009°17'2019.8
2014-Aug-21 11:34N 37°43' E 009°42'2019.9
2014-Aug-21 10:33N 37°42' E 010°07'2020.0
2014-Aug-21 09:34N 37°38' E 010°32'2720.5
2014-Aug-21 08:14N 37°32' E 011°05'1420.8
2014-Aug-21 07:34N 37°24' E 011°20'2520.8
2014-Aug-21 06:22N 37°11' E 011°46'1721.0
2014-Aug-21 05:34N 37°03' E 012°06'2120.9
2014-Aug-21 04:33N 36°57' E 012°30'2120.9
2014-Aug-21 03:33N 36°50' E 012°55'2120.8
2014-Aug-21 02:34N 36°44' E 013°20'2120.8
2014-Aug-21 01:33N 36°38' E 013°45'2120.7
2014-Aug-21 00:33N 36°33' E 014°10'2020.3
2014-Aug-20 23:33N 36°30' E 014°35'2019.9
2014-Aug-20 22:33N 36°32' E 014°59'82116.3
2014-Aug-18 20:08N 32°11' E 030°43'1520.1
2014-Aug-18 19:23N 32°07' E 030°60'1719.9
2014-Aug-18 18:32N 32°02' E 031°19'1919.6
2014-Aug-18 17:33N 31°56' E 031°40'2017.7
2014-Aug-18 16:27N 31°45' E 031°59'1314.5
2014-Aug-18 15:33N 31°36' E 032°10'1813.0
2014-Aug-18 14:11N 31°22' E 032°23'912.6
2014-Aug-18 13:27N 31°13' E 032°21'8 8.8
2014-Aug-18 12:30N 31°05' E 032°19'1010.2
2014-Aug-18 11:34N 30°55' E 032°19'21 9.4
2014-Aug-18 09:20N 30°34' E 032°18'  
Track history (hours):
 
Tides and Currents Weather Stations Pressure Air Temp Water Temp Dewpoint Dewpoint Depression Visibility Wind Speed Wind Dir Waves Ship Positions

CMA CGM Musca

Last reported at 2014-Aug-22 17:20 UTC. Time now 2014-Aug-22 17:41 UTC.
Position N 36°11' W 002°55'.

Length 347 m; draft 13.7 m.

Type: Ship (hazmat cat A). MMSI: 235070914.

Date/timePositionNaut miles runAvg speedWind from/ knotsBaromVisibWave heightAir tempDewpointWater temp
2014-Aug-22 17:20N 36°11' W 002°55'1620.1
2014-Aug-22 16:33N 36°13' W 002°36'2220.4
2014-Aug-22 15:30N 36°17' W 002°10'1919.7
2014-Aug-22 14:33N 36°21' W 001°47'2020.4
2014-Aug-22 13:33N 36°25' W 001°23'2120.6
2014-Aug-22 12:33N 36°29' W 000°57'2020.3
2014-Aug-22 11:33N 36°33' W 000°33'2019.6
2014-Aug-22 10:33N 36°38' W 000°09'1919.5
2014-Aug-22 09:33N 36°42' E 000°14'2020.1
2014-Aug-22 08:33N 36°46' E 000°39'2120.5
2014-Aug-22 07:33N 36°49' E 001°05'2020.4
2014-Aug-22 06:33N 36°52' E 001°30'2020.2
2014-Aug-22 05:33N 36°55' E 001°55'2120.9
2014-Aug-22 04:33N 36°59' E 002°20'2121.0
2014-Aug-22 03:33N 37°05' E 002°46'2121.2
2014-Aug-22 02:33N 37°09' E 003°12'2020.1
2014-Aug-22 01:33N 37°13' E 003°36'2720.9
2014-Aug-22 00:16N 37°18' E 004°10'1420.3
2014-Aug-21 23:33N 37°21' E 004°27'2522.0
2014-Aug-21 22:25N 37°24' E 004°59'16921.0
2014-Aug-21 14:21N 37°41' E 008°31'1620.6
2014-Aug-21 13:33N 37°42' E 008°52'2019.9
2014-Aug-21 12:33N 37°43' E 009°17'2019.8
2014-Aug-21 11:34N 37°43' E 009°42'2019.9
2014-Aug-21 10:33N 37°42' E 010°07'2020.0
2014-Aug-21 09:34N 37°38' E 010°32'2720.5
2014-Aug-21 08:14N 37°32' E 011°05'1420.8
2014-Aug-21 07:34N 37°24' E 011°20'2520.8
2014-Aug-21 06:22N 37°11' E 011°46'1721.0
2014-Aug-21 05:34N 37°03' E 012°06'2120.9
2014-Aug-21 04:33N 36°57' E 012°30'2120.9
2014-Aug-21 03:33N 36°50' E 012°55'2120.8
2014-Aug-21 02:34N 36°44' E 013°20'2120.8
2014-Aug-21 01:33N 36°38' E 013°45'2120.7
2014-Aug-21 00:33N 36°33' E 014°10'2020.3
2014-Aug-20 23:33N 36°30' E 014°35'2019.9
2014-Aug-20 22:33N 36°32' E 014°59'82116.3
2014-Aug-18 20:08N 32°11' E 030°43'1520.1
2014-Aug-18 19:23N 32°07' E 030°60'1719.9
2014-Aug-18 18:32N 32°02' E 031°19'1919.6
2014-Aug-18 17:33N 31°56' E 031°40'2017.7
2014-Aug-18 16:27N 31°45' E 031°59'1314.5
2014-Aug-18 15:33N 31°36' E 032°10'1813.0
2014-Aug-18 14:11N 31°22' E 032°23'912.6
2014-Aug-18 13:27N 31°13' E 032°21'8 8.8
2014-Aug-18 12:30N 31°05' E 032°19'1010.2
2014-Aug-18 11:34N 30°55' E 032°19'21 9.4
2014-Aug-18 09:20N 30°34' E 032°18'  

Dump ship's entire track history